createdAt,value
2022-11-17T08:52:10.431Z,10.04
2022-11-17T08:53:16.924Z,9.98
2022-11-17T08:54:18.464Z,9.99
2022-11-17T08:55:19.966Z,10.12
2022-11-17T08:56:21.734Z,10.24
2022-11-17T08:57:26.419Z,10.78
2022-11-17T08:58:28.002Z,11.00
2022-11-17T08:59:29.422Z,11.06
2022-11-17T09:00:30.834Z,10.81
2022-11-17T09:01:32.426Z,10.69
2022-11-17T09:02:37.301Z,10.57
2022-11-17T09:03:38.735Z,10.59
2022-11-17T09:04:40.425Z,10.62
2022-11-17T09:05:45.069Z,10.67
2022-11-17T09:06:46.488Z,10.67
2022-11-17T09:07:50.953Z,10.54
2022-11-17T09:08:55.631Z,10.30
2022-11-17T09:09:57.092Z,10.21
2022-11-17T09:10:58.753Z,10.11
2022-11-17T09:12:00.277Z,10.02
2022-11-17T09:13:01.773Z,10.04
2022-11-17T09:14:03.725Z,10.05
2022-11-17T09:15:06.200Z,10.15
2022-11-17T09:16:10.901Z,10.29
2022-11-17T09:17:12.357Z,10.20
2022-11-17T09:18:13.767Z,10.20
2022-11-17T09:19:16.024Z,10.08
2022-11-17T09:20:19.121Z,10.02
2022-11-17T09:21:20.565Z,10.00
2022-11-17T09:22:22.111Z,9.94
2022-11-17T09:23:27.122Z,9.96
2022-11-17T09:24:28.537Z,9.96
2022-11-17T09:25:30.494Z,10.03
2022-11-17T09:26:32.336Z,10.07
2022-11-17T09:27:33.897Z,10.06
2022-11-17T09:56:36.837Z,10.68
2022-11-17T09:57:45.429Z,10.68
2022-11-17T09:58:53.747Z,10.61
2022-11-17T10:00:24.550Z,10.29
2022-11-17T10:01:28.848Z,10.22
2022-11-17T10:02:30.432Z,10.22
2022-11-17T10:03:38.774Z,10.29
2022-11-17T10:04:48.749Z,10.24
2022-11-17T10:05:52.116Z,10.19
2022-11-17T10:06:53.671Z,10.24
2022-11-17T10:08:00.283Z,10.27
2022-11-17T10:09:13.417Z,10.40
2022-11-17T10:10:21.290Z,10.42
2022-11-17T10:11:31.769Z,10.39
2022-11-17T10:12:42.189Z,10.34
2022-11-17T10:13:43.639Z,10.36
2022-11-17T10:14:48.247Z,10.44
2022-11-17T10:15:57.520Z,10.49
2022-11-17T10:16:59.173Z,10.46
2022-11-17T10:18:00.545Z,10.49
2022-11-17T10:19:23.280Z,10.39
2022-11-17T10:20:24.795Z,10.13
2022-11-17T10:21:30.708Z,10.19
2022-11-17T10:22:36.992Z,10.05
2022-11-17T10:23:46.961Z,10.16
2022-11-17T10:24:52.098Z,10.29
2022-11-17T10:25:58.604Z,10.89
2022-11-17T10:27:05.491Z,10.79
2022-11-17T10:28:09.018Z,10.75
2022-11-17T10:29:14.010Z,11.02
2022-11-17T10:30:23.949Z,11.60
2022-11-17T10:31:25.366Z,12.09
2022-11-17T10:32:36.543Z,12.55
2022-11-17T10:33:41.171Z,12.75
2022-11-17T10:34:42.658Z,12.76
2022-11-17T10:35:56.436Z,11.73
2022-11-17T10:37:04.177Z,11.31
2022-11-17T10:38:08.548Z,12.33
2022-11-17T10:39:34.286Z,11.18
2022-11-17T10:40:38.893Z,10.98
2022-11-17T10:41:45.128Z,10.82
2022-11-17T10:42:59.820Z,10.78
2022-11-17T10:44:05.581Z,10.73
2022-11-17T10:45:17.276Z,10.91
2022-11-17T10:46:18.720Z,12.51
2022-11-17T10:47:31.530Z,13.29
2022-11-17T10:48:38.103Z,14.04
2022-11-17T10:49:39.764Z,14.28
2022-11-17T10:50:55.179Z,14.48
2022-11-17T10:52:05.773Z,14.00
2022-11-17T10:53:46.045Z,14.33
2022-11-17T10:54:49.725Z,13.94
2022-11-17T10:55:57.999Z,13.23
2022-11-17T10:57:00.849Z,13.74
2022-11-17T10:58:26.840Z,14.11
2022-11-17T10:59:35.881Z,15.08
2022-11-17T11:00:37.826Z,14.55
2022-11-17T11:01:49.602Z,14.61
2022-11-17T11:03:05.038Z,14.58
2022-11-17T11:04:25.885Z,15.16
2022-11-17T11:05:27.384Z,15.17
2022-11-17T11:06:31.780Z,14.97
2022-11-17T11:07:33.301Z,15.48
2022-11-17T11:08:56.074Z,15.61
2022-11-17T11:10:06.385Z,15.83
2022-11-17T11:11:18.953Z,15.16
2022-11-17T11:12:41.352Z,14.04
2022-11-17T11:13:56.622Z,13.45
2022-11-17T11:15:00.017Z,14.20
2022-11-17T11:16:01.538Z,14.65
2022-11-17T11:17:16.350Z,14.99
2022-11-17T11:18:19.737Z,14.62
2022-11-17T11:19:21.495Z,14.53
2022-11-17T11:20:42.437Z,14.61
2022-11-17T11:21:53.030Z,14.68
2022-11-17T11:23:16.410Z,15.00
2022-11-17T11:24:35.139Z,14.28
2022-11-17T11:25:51.753Z,13.84
2022-11-17T11:27:28.102Z,14.57
2022-11-17T11:28:51.390Z,14.38
2022-11-17T11:30:04.170Z,14.21
2022-11-17T11:31:20.351Z,13.69
2022-11-17T11:32:36.890Z,13.88
2022-11-17T11:33:52.403Z,13.60
2022-11-17T11:35:20.238Z,13.64
2022-11-17T11:36:50.919Z,13.96
2022-11-17T11:38:09.479Z,14.06
2022-11-17T11:39:35.922Z,14.51
2022-11-17T11:40:44.669Z,13.49
2022-11-17T11:42:06.399Z,13.79
2022-11-17T11:43:54.406Z,14.39
2022-11-17T11:45:21.119Z,14.86
2022-11-17T11:46:43.949Z,15.60
2022-11-17T11:48:10.888Z,14.70
2022-11-17T11:49:43.195Z,14.43
2022-11-17T11:51:03.593Z,14.62
2022-11-17T11:52:14.483Z,14.18
2022-11-17T11:53:24.480Z,14.57
2022-11-17T11:54:50.447Z,14.86
2022-11-17T11:56:06.567Z,14.92
2022-11-17T11:57:14.537Z,14.30
2022-11-17T11:58:22.764Z,14.18
2022-11-17T11:59:43.150Z,13.95
2022-11-17T12:00:45.861Z,14.25
2022-11-17T12:02:02.052Z,14.12
2022-11-17T12:03:12.499Z,14.00
2022-11-17T12:04:38.406Z,13.45
2022-11-17T12:06:25.013Z,13.59
2022-11-17T12:07:44.393Z,14.07
2022-11-17T12:09:11.079Z,13.81
2022-11-17T12:10:30.710Z,13.95
2022-11-17T12:11:52.344Z,14.43
2022-11-17T12:12:54.079Z,14.20
2022-11-17T12:13:57.193Z,13.82
2022-11-17T12:15:19.293Z,13.96
2022-11-17T12:16:29.222Z,14.08
2022-11-17T12:17:30.771Z,14.42
2022-11-17T12:18:33.366Z,14.64
2022-11-17T12:19:48.586Z,14.37
2022-11-17T12:20:55.908Z,14.40
2022-11-17T12:21:57.769Z,14.81
2022-11-17T12:23:31.041Z,14.69
2022-11-17T12:24:41.005Z,14.33
2022-11-17T12:25:54.560Z,14.34
2022-11-17T12:27:34.088Z,14.24
2022-11-17T12:28:40.595Z,14.28
2022-11-17T12:29:46.820Z,14.45
2022-11-17T12:30:51.762Z,14.92
2022-11-17T12:31:55.679Z,13.71
2022-11-17T12:32:58.695Z,13.51
2022-11-17T12:34:00.118Z,13.55
2022-11-17T12:35:33.707Z,13.77
2022-11-17T12:36:35.937Z,13.78
2022-11-17T12:37:37.374Z,13.97
2022-11-17T12:38:39.637Z,13.94
2022-11-17T12:39:56.241Z,14.35
2022-11-17T12:40:57.736Z,14.23
2022-11-17T12:42:06.731Z,14.26
2022-11-17T12:43:23.453Z,14.66
2022-11-17T12:44:33.874Z,14.45
2022-11-17T12:46:04.039Z,14.36
2022-11-17T12:47:21.335Z,14.77
2022-11-17T12:48:34.029Z,14.69
2022-11-17T12:50:02.222Z,14.60
2022-11-17T12:51:12.026Z,14.56
2022-11-17T12:52:21.333Z,14.87
2022-11-17T12:53:33.724Z,15.10
2022-11-17T12:54:47.739Z,14.83
2022-11-17T12:56:18.293Z,15.23
2022-11-17T12:57:33.177Z,14.78
2022-11-17T12:59:02.413Z,15.02
2022-11-17T13:00:13.116Z,14.52
2022-11-17T13:01:31.103Z,14.27
2022-11-17T13:02:59.063Z,14.52
2022-11-17T13:04:11.019Z,14.40
2022-11-17T13:05:19.332Z,14.51
2022-11-17T13:06:34.796Z,14.51
2022-11-17T13:07:37.241Z,14.40
2022-11-17T13:08:38.871Z,14.37
2022-11-17T13:09:40.266Z,14.45
2022-11-17T13:10:41.771Z,14.12
2022-11-17T13:11:58.395Z,14.19
2022-11-17T13:13:36.805Z,14.02
2022-11-17T13:15:20.762Z,14.09
2022-11-17T13:16:22.160Z,14.31
2022-11-17T13:17:29.478Z,14.51
2022-11-17T13:18:36.612Z,14.63
2022-11-17T13:19:39.080Z,14.42
2022-11-17T13:20:40.786Z,14.38
2022-11-17T13:21:45.362Z,14.07
2022-11-17T13:23:04.372Z,14.19
2022-11-17T13:24:32.397Z,14.31
2022-11-17T13:25:35.006Z,13.83
2022-11-17T13:26:38.527Z,14.15
2022-11-17T13:27:49.427Z,14.57
2022-11-17T13:29:22.523Z,14.56
2022-11-17T13:30:27.665Z,14.45
2022-11-17T13:31:29.322Z,14.44
2022-11-17T13:32:30.737Z,14.70
2022-11-17T13:33:38.461Z,15.09
2022-11-17T13:34:56.335Z,14.42
2022-11-17T13:36:19.820Z,14.43
2022-11-17T13:37:26.557Z,14.65
2022-11-17T13:38:28.082Z,14.65
2022-11-17T13:39:29.517Z,14.53
2022-11-17T13:40:33.713Z,14.20
2022-11-17T13:41:39.513Z,14.01
2022-11-17T13:42:41.646Z,13.99
2022-11-17T13:43:45.662Z,13.90
2022-11-17T13:44:48.199Z,14.20
2022-11-17T13:45:51.127Z,14.09
2022-11-17T13:46:52.540Z,13.81
2022-11-17T13:47:54.885Z,13.90
2022-11-17T13:48:57.628Z,14.13
2022-11-17T13:50:23.434Z,14.34
2022-11-17T13:51:39.040Z,14.41
2022-11-17T13:52:46.713Z,13.98
2022-11-17T13:53:51.456Z,13.74
2022-11-17T13:54:52.955Z,13.34
2022-11-17T13:55:54.532Z,13.03
2022-11-17T13:57:08.034Z,12.84
2022-11-17T13:58:40.876Z,12.88
2022-11-17T13:59:44.671Z,12.64
2022-11-17T14:00:54.195Z,12.76
2022-11-17T14:02:20.692Z,12.58
2022-11-17T14:03:31.691Z,12.90
2022-11-17T14:04:33.089Z,13.03
2022-11-17T14:05:34.529Z,13.06
2022-11-17T14:06:52.721Z,13.25
2022-11-17T14:07:56.909Z,13.20
2022-11-17T14:09:04.981Z,12.91
2022-11-17T14:10:31.684Z,12.51
2022-11-17T14:11:33.235Z,12.55
2022-11-17T14:12:34.587Z,12.62
2022-11-17T14:13:42.278Z,12.72
2022-11-17T14:14:48.476Z,12.67
2022-11-17T14:15:53.843Z,12.66
2022-11-17T14:16:55.524Z,12.52
2022-11-17T14:18:01.993Z,12.06
2022-11-17T14:19:05.452Z,11.93
2022-11-17T14:20:31.073Z,11.65
2022-11-17T14:21:32.976Z,11.54
2022-11-17T14:22:34.370Z,11.44
2022-11-17T14:23:36.052Z,11.37
2022-11-17T14:24:37.966Z,11.34
2022-11-17T14:25:41.833Z,11.32
2022-11-17T14:26:44.714Z,11.17
2022-11-17T14:27:51.956Z,11.11
2022-11-17T14:28:55.244Z,11.03
2022-11-17T14:29:57.259Z,11.07
2022-11-17T14:30:58.757Z,11.01
2022-11-17T14:32:00.163Z,10.99
2022-11-17T14:33:07.696Z,10.97
2022-11-17T14:34:12.287Z,10.98
2022-11-17T14:35:15.262Z,10.96
2022-11-17T14:36:20.900Z,10.81
2022-11-17T14:37:22.261Z,10.88
2022-11-17T14:38:23.801Z,10.77
2022-11-17T14:39:25.201Z,10.77
2022-11-17T14:40:26.557Z,10.67
2022-11-17T14:41:28.060Z,10.74
2022-11-17T14:42:34.713Z,10.74
2022-11-17T14:43:37.863Z,10.70
2022-11-17T14:44:39.294Z,10.58
2022-11-17T14:45:40.696Z,10.61
2022-11-17T14:46:46.274Z,10.56
2022-11-17T14:47:48.631Z,10.64
2022-11-17T14:48:50.962Z,10.63
2022-11-17T14:49:52.366Z,10.60
2022-11-17T14:50:59.168Z,10.59
2022-11-17T14:52:00.678Z,10.52
2022-11-17T14:53:02.079Z,10.49
2022-11-17T14:54:03.957Z,10.49
2022-11-17T14:55:06.112Z,10.45
2022-11-17T14:56:08.986Z,10.49
2022-11-17T14:57:10.419Z,10.40
2022-11-17T14:58:12.006Z,10.43
2022-11-17T14:59:13.604Z,10.42
2022-11-17T15:00:20.544Z,10.38
2022-11-17T15:01:29.262Z,10.45
2022-11-17T15:02:30.795Z,10.39
2022-11-17T15:03:32.263Z,10.36
2022-11-17T15:04:49.965Z,10.34
2022-11-17T15:05:52.693Z,10.42
2022-11-17T15:06:54.091Z,10.40
2022-11-17T15:07:56.163Z,10.30
2022-11-17T15:09:00.277Z,10.37
2022-11-17T15:10:01.664Z,10.37
2022-11-17T15:11:04.694Z,10.29
2022-11-17T15:12:06.498Z,10.34
2022-11-17T15:13:07.880Z,10.30
2022-11-17T15:14:10.797Z,10.28
2022-11-17T15:15:12.395Z,10.26
2022-11-17T15:16:13.879Z,10.23
2022-11-17T15:17:15.994Z,10.20
2022-11-17T15:18:17.340Z,10.21
2022-11-17T15:19:18.872Z,10.16
2022-11-17T15:20:23.810Z,10.18
2022-11-17T15:21:25.583Z,10.19
2022-11-17T15:22:26.968Z,10.21
2022-11-17T15:23:28.382Z,10.22
2022-11-17T15:24:29.819Z,10.20
2022-11-17T15:25:31.239Z,10.18
2022-11-17T15:26:34.103Z,10.04
2022-11-17T15:27:35.493Z,10.09
2022-11-17T15:28:36.981Z,10.10
2022-11-17T15:29:38.388Z,10.09
2022-11-17T15:30:39.797Z,10.07
2022-11-17T15:31:41.674Z,10.07
2022-11-17T15:32:43.065Z,10.01
2022-11-17T15:33:46.235Z,10.03
2022-11-17T15:34:47.708Z,9.92
2022-11-17T15:35:59.167Z,9.84
2022-11-17T15:37:00.507Z,9.93
2022-11-17T15:38:01.882Z,9.86
2022-11-17T15:39:04.081Z,9.93
2022-11-17T15:40:06.157Z,9.87
2022-11-17T15:41:12.666Z,9.85
2022-11-17T15:42:14.136Z,9.60
2022-11-17T15:43:15.546Z,9.81
2022-11-17T15:44:18.657Z,9.84
2022-11-17T15:45:20.423Z,9.85
2022-11-17T15:46:22.466Z,9.82
2022-11-17T15:47:23.881Z,9.61
2022-11-17T15:48:25.354Z,9.65
2022-11-17T15:49:26.733Z,9.78
2022-11-17T15:50:28.237Z,9.78
2022-11-17T15:51:33.563Z,9.78
2022-11-17T15:53:02.280Z,9.72
2022-11-17T15:53:58.604Z,9.69
2022-11-17T15:55:00.020Z,9.78
2022-11-17T15:56:20.105Z,9.78
2022-11-17T15:57:21.636Z,9.72
2022-11-17T15:58:23.024Z,9.55
2022-11-17T15:59:24.617Z,9.74
2022-11-17T16:00:26.146Z,9.72
2022-11-17T16:01:38.841Z,9.70
2022-11-17T16:02:43.302Z,9.59
2022-11-17T16:03:45.632Z,9.63
2022-11-17T16:04:47.043Z,9.63
2022-11-17T16:05:48.519Z,9.48
2022-11-17T16:06:50.049Z,9.48
2022-11-17T16:07:51.454Z,9.59
2022-11-17T16:08:53.461Z,9.58
2022-11-17T16:09:54.864Z,9.52
2022-11-17T16:10:56.241Z,9.47
2022-11-17T16:11:57.839Z,9.61
2022-11-17T16:12:59.270Z,9.44
2022-11-17T16:14:01.090Z,9.56
2022-11-17T16:15:02.691Z,9.54
2022-11-17T16:16:04.604Z,9.50
2022-11-17T16:17:15.650Z,9.55
2022-11-17T16:18:17.334Z,9.51
2022-11-17T16:19:19.088Z,9.49
2022-11-17T16:20:20.765Z,9.49
2022-11-17T16:21:22.338Z,9.44
2022-11-17T16:22:23.692Z,9.46
2022-11-17T16:23:25.130Z,9.43
2022-11-17T16:24:26.556Z,9.27
2022-11-17T16:25:27.968Z,9.28
2022-11-17T16:26:30.077Z,9.18
2022-11-17T16:27:32.715Z,9.21
2022-11-17T16:28:34.273Z,9.09
2022-11-17T16:29:35.766Z,9.14
2022-11-17T16:30:37.346Z,9.03
2022-11-17T16:31:39.181Z,9.11
2022-11-17T16:32:40.803Z,9.02
2022-11-17T16:33:59.923Z,9.02
2022-11-17T16:35:01.450Z,8.91
2022-11-17T16:36:06.610Z,8.91
2022-11-17T16:37:07.955Z,8.95
2022-11-17T16:38:14.521Z,8.93
2022-11-17T16:39:17.308Z,8.95
2022-11-17T16:40:19.458Z,8.93
2022-11-17T16:41:26.280Z,8.89
2022-11-17T16:42:27.727Z,8.88
2022-11-17T16:43:29.153Z,8.80
2022-11-17T16:44:30.588Z,8.81
2022-11-17T16:45:41.523Z,8.75
2022-11-17T16:46:45.255Z,8.78
2022-11-17T16:47:46.616Z,8.80
2022-11-17T16:48:49.519Z,8.76
2022-11-17T16:49:51.860Z,8.79
2022-11-17T16:50:53.350Z,8.77
2022-11-17T16:51:54.803Z,8.77
2022-11-17T16:52:56.129Z,8.79
2022-11-17T16:54:00.426Z,8.82
2022-11-17T16:55:04.916Z,8.76
2022-11-17T16:56:09.068Z,8.80
2022-11-17T16:57:10.544Z,8.76
2022-11-17T16:58:11.939Z,8.74
2022-11-17T16:59:17.144Z,8.79
2022-11-17T17:00:19.340Z,8.65
2022-11-17T17:01:24.134Z,8.81
2022-11-17T17:02:26.065Z,8.79
2022-11-17T17:03:27.481Z,8.82
2022-11-17T17:04:32.639Z,8.86
2022-11-17T17:05:40.366Z,8.81
2022-11-17T17:06:43.876Z,8.65
2022-11-17T17:07:45.287Z,8.39
2022-11-17T17:08:46.774Z,8.60
2022-11-17T17:09:48.129Z,8.55
2022-11-17T17:10:52.647Z,8.76
2022-11-17T17:11:54.218Z,8.71
2022-11-17T17:12:55.617Z,8.76
2022-11-17T17:13:57.444Z,8.93
2022-11-17T17:14:58.814Z,9.13
2022-11-17T17:16:12.561Z,9.10
2022-11-17T17:17:13.982Z,9.41
2022-11-17T17:18:15.386Z,9.49
2022-11-17T17:19:17.020Z,9.61
2022-11-17T17:20:18.564Z,9.54
2022-11-17T17:21:20.285Z,9.65
2022-11-17T17:22:21.908Z,9.41
2022-11-17T17:23:24.636Z,9.57
2022-11-17T17:24:26.063Z,9.57
2022-11-17T17:25:27.450Z,9.54
2022-11-17T17:26:31.438Z,9.69
2022-11-17T17:27:32.903Z,9.74
2022-11-17T17:28:37.151Z,9.77
2022-11-17T17:29:38.518Z,9.80
2022-11-17T17:30:39.924Z,9.88
2022-11-17T17:31:42.436Z,9.86
2022-11-17T17:32:43.843Z,9.86
2022-11-17T17:33:45.542Z,9.85
2022-11-17T17:34:46.947Z,9.75
2022-11-17T17:35:48.612Z,9.80
2022-11-17T17:36:50.232Z,9.72
2022-11-17T17:37:51.677Z,9.72
2022-11-17T17:38:56.377Z,9.69
2022-11-17T17:39:57.877Z,9.77
2022-11-17T17:41:10.309Z,9.72
2022-11-17T17:42:17.837Z,9.71
2022-11-17T17:43:19.227Z,9.64
2022-11-17T17:44:20.649Z,9.77
2022-11-17T17:45:22.042Z,9.84
2022-11-17T17:46:23.701Z,9.80
2022-11-17T17:47:25.131Z,9.80
2022-11-17T17:48:26.519Z,9.75
2022-11-17T17:49:27.956Z,9.71
